sensor_id;sensor_type;location;lat;lon;timestamp;pressure;altitude;pressure_sealevel;temperature;humidity
49945;BME280;35838;49.134;9.212;2023-05-08T00:00:09;100307.06;;;15.73;100.00
49945;BME280;35838;49.134;9.212;2023-05-08T00:01:42;100307.06;;;15.73;100.00
49945;BME280;35838;49.134;9.212;2023-05-08T00:03:14;100307.00;;;15.74;100.00
49945;BME280;35838;49.134;9.212;2023-05-08T00:04:48;100303.50;;;15.74;100.00
49945;BME280;35838;49.134;9.212;2023-05-08T00:06:24;100300.97;;;15.71;100.00
49945;BME280;35838;49.134;9.212;2023-05-08T00:07:58;100301.88;;;15.70;100.00
49945;BME280;35838;49.134;9.212;2023-05-08T00:09:33;100302.56;;;15.78;100.00
49945;BME280;35838;49.134;9.212;2023-05-08T00:11:06;100303.47;;;15.77;100.00
49945;BME280;35838;49.134;9.212;2023-05-08T00:12:40;100299.97;;;15.78;100.00
49945;BME280;35838;49.134;9.212;2023-05-08T00:14:13;100304.41;;;15.74;100.00
49945;BME280;35838;49.134;9.212;2023-05-08T00:15:44;100305.19;;;15.78;100.00
49945;BME280;35838;49.134;9.212;2023-05-08T00:17:18;100307.81;;;15.78;100.00
49945;BME280;35838;49.134;9.212;2023-05-08T00:18:52;100305.16;;;15.81;100.00
49945;BME280;35838;49.134;9.212;2023-05-08T00:20:23;100304.41;;;15.74;100.00
49945;BME280;35838;49.134;9.212;2023-05-08T00:22:00;100306.97;;;15.76;100.00
49945;BME280;35838;49.134;9.212;2023-05-08T00:23:33;100307.06;;;15.73;100.00
49945;BME280;35838;49.134;9.212;2023-05-08T00:25:07;100305.25;;;15.75;100.00
49945;BME280;35838;49.134;9.212;2023-05-08T00:26:41;100313.94;;;15.77;100.00
49945;BME280;35838;49.134;9.212;2023-05-08T00:28:15;100316.50;;;15.80;100.00
49945;BME280;35838;49.134;9.212;2023-05-08T00:29:48;100305.22;;;15.76;100.00
49945;BME280;35838;49.134;9.212;2023-05-08T00:31:19;100306.97;;;15.76;100.00
49945;BME280;35838;49.134;9.212;2023-05-08T00:32:53;100305.22;;;15.76;100.00
49945;BME280;35838;49.134;9.212;2023-05-08T00:34:27;100305.25;;;15.75;100.00
49945;BME280;35838;49.134;9.212;2023-05-08T00:36:01;100305.31;;;15.72;100.00
49945;BME280;35838;49.134;9.212;2023-05-08T00:37:37;100304.47;;;15.70;100.00
49945;BME280;35838;49.134;9.212;2023-05-08T00:39:10;100302.78;;;15.67;100.00
49945;BME280;35838;49.134;9.212;2023-05-08T00:40:43;100305.38;;;15.69;100.00
49945;BME280;35838;49.134;9.212;2023-05-08T00:42:14;100304.44;;;15.73;100.00
49945;BME280;35838;49.134;9.212;2023-05-08T00:43:48;100313.94;;;15.77;100.00
49945;BME280;35838;49.134;9.212;2023-05-08T00:45:22;100306.97;;;15.76;100.00
49945;BME280;35838;49.134;9.212;2023-05-08T00:46:56;100309.59;;;15.77;100.00
49945;BME280;35838;49.134;9.212;2023-05-08T00:48:30;100316.56;;;15.77;100.00
49945;BME280;35838;49.134;9.212;2023-05-08T00:50:04;100314.81;;;15.76;100.00
49945;BME280;35838;49.134;9.212;2023-05-08T00:51:36;100311.34;;;15.75;100.00
49945;BME280;35838;49.134;9.212;2023-05-08T00:53:13;100312.38;;;15.66;100.00
49945;BME280;35838;49.134;9.212;2023-05-08T00:54:47;100307.31;;;15.57;100.00
49945;BME280;35838;49.134;9.212;2023-05-08T00:56:21;100311.69;;;15.57;100.00
49945;BME280;35838;49.134;9.212;2023-05-08T00:57:56;100317.66;;;15.65;100.00
49945;BME280;35838;49.134;9.212;2023-05-08T00:59:27;100313.25;;;15.67;100.00
49945;BME280;35838;49.134;9.212;2023-05-08T01:01:01;100314.06;;;15.69;100.00
49945;BME280;35838;49.134;9.212;2023-05-08T01:02:35;100320.25;;;15.65;100.00
49945;BME280;35838;49.134;9.212;2023-05-08T01:04:09;100321.03;;;15.72;100.00
49945;BME280;35838;49.134;9.212;2023-05-08T01:05:40;100321.91;;;15.69;100.00
49945;BME280;35838;49.134;9.212;2023-05-08T01:07:15;100333.25;;;15.70;100.00
49945;BME280;35838;49.134;9.212;2023-05-08T01:08:50;100323.84;;;15.59;100.00
49945;BME280;35838;49.134;9.212;2023-05-08T01:10:23;100323.84;;;15.59;100.00
49945;BME280;35838;49.134;9.212;2023-05-08T01:12:02;100320.13;;;15.73;100.00
49945;BME280;35838;49.134;9.212;2023-05-08T01:13:39;100328.06;;;15.66;100.00
49945;BME280;35838;49.134;9.212;2023-05-08T01:15:15;100324.53;;;15.69;100.00
49945;BME280;35838;49.134;9.212;2023-05-08T01:16:52;100328.19;;;15.60;100.00
49945;BME280;35838;49.134;9.212;2023-05-08T01:18:31;100329.97;;;15.60;100.00
49945;BME280;35838;49.134;9.212;2023-05-08T01:20:09;100331.66;;;15.62;100.00
49945;BME280;35838;49.134;9.212;2023-05-08T01:21:48;100338.66;;;15.60;100.00
49945;BME280;35838;49.134;9.212;2023-05-08T01:25:22;100343.00;;;15.61;100.00
49945;BME280;35838;49.134;9.212;2023-05-08T01:29:09;100348.31;;;15.57;100.00
49945;BME280;35838;49.134;9.212;2023-05-08T01:30:55;100349.97;;;15.61;100.00
49945;BME280;35838;49.134;9.212;2023-05-08T01:32:34;100353.44;;;15.64;100.00
49945;BME280;35838;49.134;9.212;2023-05-08T01:34:07;100349.94;;;15.64;100.00
49945;BME280;35838;49.134;9.212;2023-05-08T01:35:44;100351.66;;;15.65;100.00
49945;BME280;35838;49.134;9.212;2023-05-08T01:37:21;100346.47;;;15.63;100.00
49945;BME280;35838;49.134;9.212;2023-05-08T01:39:00;100352.50;;;15.65;100.00
49945;BME280;35838;49.134;9.212;2023-05-08T01:40:39;100352.63;;;15.59;100.00
49945;BME280;35838;49.134;9.212;2023-05-08T01:42:17;100355.16;;;15.64;100.00
49945;BME280;35838;49.134;9.212;2023-05-08T01:44:00;100351.63;;;15.66;100.00
49945;BME280;35838;49.134;9.212;2023-05-08T01:45:37;100356.13;;;15.58;100.00
49945;BME280;35838;49.134;9.212;2023-05-08T01:47:11;100352.66;;;15.56;100.00
49945;BME280;35838;49.134;9.212;2023-05-08T01:48:52;100356.94;;;15.62;100.00
49945;BME280;35838;49.134;9.212;2023-05-08T01:50:30;100357.91;;;15.56;100.00
49945;BME280;35838;49.134;9.212;2023-05-08T01:52:06;100364.84;;;15.59;100.00
49945;BME280;35838;49.134;9.212;2023-05-08T01:53:43;100364.84;;;15.59;100.00
49945;BME280;35838;49.134;9.212;2023-05-08T01:55:20;100366.59;;;15.60;100.00
49945;BME280;35838;49.134;9.212;2023-05-08T01:56:56;100362.25;;;15.57;100.00
49945;BME280;35838;49.134;9.212;2023-05-08T01:58:31;100359.59;;;15.60;100.00
49945;BME280;35838;49.134;9.212;2023-05-08T02:00:08;100370.91;;;15.62;100.00
49945;BME280;35838;49.134;9.212;2023-05-08T02:01:42;100361.38;;;15.58;100.00
49945;BME280;35838;49.134;9.212;2023-05-08T02:03:17;100364.84;;;15.59;100.00
49945;BME280;35838;49.134;9.212;2023-05-08T02:04:53;100369.28;;;15.54;100.00
49945;BME280;35838;49.134;9.212;2023-05-08T02:06:27;100363.13;;;15.56;100.00
49945;BME280;35838;49.134;9.212;2023-05-08T02:08:02;100363.09;;;15.59;100.00
49945;BME280;35838;49.134;9.212;2023-05-08T02:09:36;100366.59;;;15.58;100.00
49945;BME280;35838;49.134;9.212;2023-05-08T02:11:07;100361.38;;;15.58;100.00
49945;BME280;35838;49.134;9.212;2023-05-08T02:12:43;100367.47;;;15.57;100.00
49945;BME280;35838;49.134;9.212;2023-05-08T02:14:17;100357.09;;;15.54;100.00
49945;BME280;35838;49.134;9.212;2023-05-08T02:15:52;100364.88;;;15.57;100.00
49945;BME280;35838;49.134;9.212;2023-05-08T02:17:26;100364.06;;;15.54;100.00
49945;BME280;35838;49.134;9.212;2023-05-08T02:18:59;100363.13;;;15.58;100.00
49945;BME280;35838;49.134;9.212;2023-05-08T02:20:36;100356.22;;;15.55;100.00
49945;BME280;35838;49.134;9.212;2023-05-08T02:22:11;100361.44;;;15.55;100.00
49945;BME280;35838;49.134;9.212;2023-05-08T02:23:46;100359.72;;;15.54;100.00
49945;BME280;35838;49.134;9.212;2023-05-08T02:25:20;100359.72;;;15.54;100.00
49945;BME280;35838;49.134;9.212;2023-05-08T02:26:55;100370.13;;;15.56;100.00
49945;BME280;35838;49.134;9.212;2023-05-08T02:28:26;100375.38;;;15.56;100.00
49945;BME280;35838;49.134;9.212;2023-05-08T02:30:01;100370.16;;;15.54;100.00
49945;BME280;35838;49.134;9.212;2023-05-08T02:31:33;100367.53;;;15.56;100.00
49945;BME280;35838;49.134;9.212;2023-05-08T02:33:07;100364.97;;;15.51;100.00
49945;BME280;35838;49.134;9.212;2023-05-08T02:34:40;100365.78;;;15.55;100.00
49945;BME280;35838;49.134;9.212;2023-05-08T02:36:17;100361.53;;;15.49;100.00
49945;BME280;35838;49.134;9.212;2023-05-08T02:37:51;100359.72;;;15.54;100.00
49945;BME280;35838;49.134;9.212;2023-05-08T02:39:24;100366.75;;;15.49;100.00
49945;BME280;35838;49.134;9.212;2023-05-08T02:40:59;100358.91;;;15.49;100.00
49945;BME280;35838;49.134;9.212;2023-05-08T02:42:35;100365.09;;;15.45;100.00
49945;BME280;35838;49.134;9.212;2023-05-08T02:44:08;100366.78;;;15.47;100.00
49945;BME280;35838;49.134;9.212;2023-05-08T02:45:44;100363.25;;;15.50;100.00
49945;BME280;35838;49.134;9.212;2023-05-08T02:47:20;100358.97;;;15.46;100.00
49945;BME280;35838;49.134;9.212;2023-05-08T02:48:54;100360.72;;;15.45;100.00
49945;BME280;35838;49.134;9.212;2023-05-08T02:50:31;100362.44;;;15.46;100.00
49945;BME280;35838;49.134;9.212;2023-05-08T02:52:09;100362.38;;;15.51;100.00
49945;BME280;35838;49.134;9.212;2023-05-08T02:53:47;100362.41;;;15.48;100.00
49945;BME280;35838;49.134;9.212;2023-05-08T02:55:28;100369.38;;;15.49;100.00
49945;BME280;35838;49.134;9.212;2023-05-08T02:57:07;100364.13;;;15.49;100.00
49945;BME280;35838;49.134;9.212;2023-05-08T02:58:43;100364.16;;;15.47;100.00
49945;BME280;35838;49.134;9.212;2023-05-08T03:00:17;100364.22;;;15.44;100.00
49945;BME280;35838;49.134;9.212;2023-05-08T03:01:53;100359.88;;;15.43;100.00
49945;BME280;35838;49.134;9.212;2023-05-08T03:03:31;100359.88;;;15.45;100.00
49945;BME280;35838;49.134;9.212;2023-05-08T03:05:10;100359.81;;;15.46;100.00
49945;BME280;35838;49.134;9.212;2023-05-08T03:06:46;100366.91;;;15.40;100.00
49945;BME280;35838;49.134;9.212;2023-05-08T03:08:22;100364.28;;;15.40;100.00
49945;BME280;35838;49.134;9.212;2023-05-08T03:09:59;100365.06;;;15.46;100.00
49945;BME280;35838;49.134;9.212;2023-05-08T03:11:36;100366.78;;;15.47;100.00
49945;BME280;35838;49.134;9.212;2023-05-08T03:13:08;100366.88;;;15.43;100.00
49945;BME280;35838;49.134;9.212;2023-05-08T03:14:45;100363.31;;;15.45;100.00
49945;BME280;35838;49.134;9.212;2023-05-08T03:16:21;100356.41;;;15.43;100.00
49945;BME280;35838;49.134;9.212;2023-05-08T03:17:57;100365.03;;;15.48;100.00
49945;BME280;35838;49.134;9.212;2023-05-08T03:19:35;100366.81;;;15.46;100.00
49945;BME280;35838;49.134;9.212;2023-05-08T03:21:09;100360.66;;;15.48;100.00
49945;BME280;35838;49.134;9.212;2023-05-08T03:22:45;100363.25;;;15.50;100.00
49945;BME280;35838;49.134;9.212;2023-05-08T03:24:22;100358.91;;;15.50;100.00
49945;BME280;35838;49.134;9.212;2023-05-08T03:25:57;100354.53;;;15.51;100.00
49945;BME280;35838;49.134;9.212;2023-05-08T03:27:31;100364.13;;;15.49;100.00
49945;BME280;35838;49.134;9.212;2023-05-08T03:29:05;100353.72;;;15.47;100.00
49945;BME280;35838;49.134;9.212;2023-05-08T03:30:37;100357.19;;;15.48;100.00
49945;BME280;35838;49.134;9.212;2023-05-08T03:32:12;100363.31;;;15.47;100.00
49945;BME280;35838;49.134;9.212;2023-05-08T03:33:47;100353.72;;;15.47;100.00
49945;BME280;35838;49.134;9.212;2023-05-08T03:35:18;100360.66;;;15.48;100.00
49945;BME280;35838;49.134;9.212;2023-05-08T03:36:52;100360.72;;;15.45;100.00
49945;BME280;35838;49.134;9.212;2023-05-08T03:38:26;100358.09;;;15.47;100.00
49945;BME280;35838;49.134;9.212;2023-05-08T03:40:02;100358.03;;;15.50;100.00
49945;BME280;35838;49.134;9.212;2023-05-08T03:41:36;100352.03;;;15.45;100.00
49945;BME280;35838;49.134;9.212;2023-05-08T03:43:08;100351.94;;;15.49;100.00
49945;BME280;35838;49.134;9.212;2023-05-08T03:44:42;100356.28;;;15.49;100.00
49945;BME280;35838;49.134;9.212;2023-05-08T03:46:15;100356.41;;;15.43;100.00
49945;BME280;35838;49.134;9.212;2023-05-08T03:47:49;100359.00;;;15.43;100.00
49945;BME280;35838;49.134;9.212;2023-05-08T03:49:24;100356.38;;;15.44;100.00
49945;BME280;35838;49.134;9.212;2023-05-08T03:51:00;100355.59;;;15.39;100.00
49945;BME280;35838;49.134;9.212;2023-05-08T03:52:34;100359.94;;;15.39;100.00
49945;BME280;35838;49.134;9.212;2023-05-08T03:54:07;100350.31;;;15.41;100.00
49945;BME280;35838;49.134;9.212;2023-05-08T03:55:44;100361.66;;;15.40;100.00
49945;BME280;35838;49.134;9.212;2023-05-08T03:57:17;100358.25;;;15.38;100.00
49945;BME280;35838;49.134;9.212;2023-05-08T03:58:53;100361.66;;;15.40;100.00
49945;BME280;35838;49.134;9.212;2023-05-08T04:00:28;100361.63;;;15.43;100.00
49945;BME280;35838;49.134;9.212;2023-05-08T04:02:08;100357.25;;;15.43;100.00
49945;BME280;35838;49.134;9.212;2023-05-08T04:03:48;100365.09;;;15.45;100.00
49945;BME280;35838;49.134;9.212;2023-05-08T04:05:27;100368.47;;;15.50;100.00
49945;BME280;35838;49.134;9.212;2023-05-08T04:07:05;100369.38;;;15.49;100.00
49945;BME280;35838;49.134;9.212;2023-05-08T04:08:40;100365.09;;;15.43;100.00
49945;BME280;35838;49.134;9.212;2023-05-08T04:10:16;100367.06;;;15.30;100.00
49945;BME280;35838;49.134;9.212;2023-05-08T04:11:59;100368.00;;;15.26;100.00
49945;BME280;35838;49.134;9.212;2023-05-08T04:13:36;100368.84;;;15.28;100.00
49945;BME280;35838;49.134;9.212;2023-05-08T04:15:09;100374.97;;;15.27;100.00
49945;BME280;35838;49.134;9.212;2023-05-08T04:16:46;100382.66;;;15.35;100.00
49945;BME280;35838;49.134;9.212;2023-05-08T04:18:21;100381.81;;;15.34;100.00
49945;BME280;35838;49.134;9.212;2023-05-08T04:19:59;100379.13;;;15.39;100.00
49945;BME280;35838;49.134;9.212;2023-05-08T04:21:34;100388.66;;;15.42;100.00
49945;BME280;35838;49.134;9.212;2023-05-08T04:23:08;100384.41;;;15.38;100.00
49945;BME280;35838;49.134;9.212;2023-05-08T04:24:45;100383.44;;;15.42;100.00
49945;BME280;35838;49.134;9.212;2023-05-08T04:26:21;100382.50;;;15.46;100.00
49945;BME280;35838;49.134;9.212;2023-05-08T04:27:57;100381.59;;;15.48;100.00
49945;BME280;35838;49.134;9.212;2023-05-08T04:29:32;100383.34;;;15.48;100.00
49945;BME280;35838;49.134;9.212;2023-05-08T04:31:03;100385.13;;;15.46;100.00
49945;BME280;35838;49.134;9.212;2023-05-08T04:32:37;100390.38;;;15.46;100.00
49945;BME280;35838;49.134;9.212;2023-05-08T04:34:11;100385.97;;;15.46;100.00
49945;BME280;35838;49.134;9.212;2023-05-08T04:35:44;100395.59;;;15.44;100.00
49945;BME280;35838;49.134;9.212;2023-05-08T04:37:24;100387.78;;;15.43;100.00
49945;BME280;35838;49.134;9.212;2023-05-08T04:38:58;100389.56;;;15.41;100.00
49945;BME280;35838;49.134;9.212;2023-05-08T04:40:32;100388.72;;;15.40;100.00
49945;BME280;35838;49.134;9.212;2023-05-08T04:42:06;100385.25;;;15.38;100.00
49945;BME280;35838;49.134;9.212;2023-05-08T04:43:39;100391.44;;;15.32;100.00
49945;BME280;35838;49.134;9.212;2023-05-08T04:45:13;100387.81;;;15.40;100.00
49945;BME280;35838;49.134;9.212;2023-05-08T04:46:47;100394.81;;;15.39;100.00
49945;BME280;35838;49.134;9.212;2023-05-08T04:48:20;100398.28;;;15.40;100.00
49945;BME280;35838;49.134;9.212;2023-05-08T04:49:54;100395.63;;;15.43;100.00
49945;BME280;35838;49.134;9.212;2023-05-08T04:51:28;100399.16;;;15.40;100.00
49945;BME280;35838;49.134;9.212;2023-05-08T04:53:01;100403.38;;;15.49;100.00
49945;BME280;35838;49.134;9.212;2023-05-08T04:54:35;100398.13;;;15.49;100.00
49945;BME280;35838;49.134;9.212;2023-05-08T04:56:09;100399.88;;;15.50;100.00
49945;BME280;35838;49.134;9.212;2023-05-08T04:57:42;100395.53;;;15.50;100.00
49945;BME280;35838;49.134;9.212;2023-05-08T04:59:16;100403.25;;;15.57;100.00
49945;BME280;35838;49.134;9.212;2023-05-08T05:00:50;100403.22;;;15.58;100.00
49945;BME280;35838;49.134;9.212;2023-05-08T05:02:24;100408.59;;;15.50;100.00
49945;BME280;35838;49.134;9.212;2023-05-08T05:03:58;100404.25;;;15.49;100.00
49945;BME280;35838;49.134;9.212;2023-05-08T05:05:31;100403.47;;;15.43;100.00
49945;BME280;35838;49.134;9.212;2023-05-08T05:07:07;100405.97;;;15.50;100.00
49945;BME280;35838;49.134;9.212;2023-05-08T05:08:41;100409.50;;;15.48;100.00
49945;BME280;35838;49.134;9.212;2023-05-08T05:10:15;100411.28;;;15.44;100.00
49945;BME280;35838;49.134;9.212;2023-05-08T05:11:51;100415.69;;;15.44;100.00
49945;BME280;35838;49.134;9.212;2023-05-08T05:13:24;100414.75;;;15.46;100.00
49945;BME280;35838;49.134;9.212;2023-05-08T05:14:58;100419.09;;;15.47;100.00
49945;BME280;35838;49.134;9.212;2023-05-08T05:16:32;100419.06;;;15.49;100.00
49945;BME280;35838;49.134;9.212;2023-05-08T05:18:05;100417.25;;;15.54;100.00
49945;BME280;35838;49.134;9.212;2023-05-08T05:19:39;100420.72;;;15.55;100.00
49945;BME280;35838;49.134;9.212;2023-05-08T05:21:13;100418.16;;;15.53;100.00
49945;BME280;35838;49.134;9.212;2023-05-08T05:22:46;100419.03;;;15.52;100.00
49945;BME280;35838;49.134;9.212;2023-05-08T05:24:20;100419.94;;;15.49;100.00
49945;BME280;35838;49.134;9.212;2023-05-08T05:25:53;100419.88;;;15.52;100.00
49945;BME280;35838;49.134;9.212;2023-05-08T05:27:27;100414.56;;;15.57;100.00
49945;BME280;35838;49.134;9.212;2023-05-08T05:29:01;100427.66;;;15.57;100.00
49945;BME280;35838;49.134;9.212;2023-05-08T05:30:37;100425.03;;;15.57;100.00
49945;BME280;35838;49.134;9.212;2023-05-08T05:32:10;100429.41;;;15.57;100.00
49945;BME280;35838;49.134;9.212;2023-05-08T05:33:44;100427.66;;;15.57;100.00
49945;BME280;35838;49.134;9.212;2023-05-08T05:35:18;100432.84;;;15.60;100.00
49945;BME280;35838;49.134;9.212;2023-05-08T05:36:52;100440.72;;;15.59;100.00
49945;BME280;35838;49.134;9.212;2023-05-08T05:38:26;100442.44;;;15.61;100.00
49945;BME280;35838;49.134;9.212;2023-05-08T05:39:59;100434.63;;;15.58;100.00
49945;BME280;35838;49.134;9.212;2023-05-08T05:41:33;100441.63;;;15.56;100.00
49945;BME280;35838;49.134;9.212;2023-05-08T05:43:06;100438.22;;;15.51;100.00
49945;BME280;35838;49.134;9.212;2023-05-08T05:44:40;100440.81;;;15.54;100.00
49945;BME280;35838;49.134;9.212;2023-05-08T05:46:14;100447.81;;;15.52;100.00
49945;BME280;35838;49.134;9.212;2023-05-08T05:47:48;100445.16;;;15.54;100.00
49945;BME280;35838;49.134;9.212;2023-05-08T05:49:23;100439.09;;;15.50;100.00
49945;BME280;35838;49.134;9.212;2023-05-08T05:50:57;100440.72;;;15.57;100.00
49945;BME280;35838;49.134;9.212;2023-05-08T05:52:28;100433.81;;;15.55;100.00
49945;BME280;35838;49.134;9.212;2023-05-08T05:54:03;100434.69;;;15.55;100.00
49945;BME280;35838;49.134;9.212;2023-05-08T05:55:36;100437.25;;;15.57;100.00
49945;BME280;35838;49.134;9.212;2023-05-08T05:57:10;100440.94;;;15.45;100.00
49945;BME280;35838;49.134;9.212;2023-05-08T05:58:44;100432.06;;;15.54;100.00
49945;BME280;35838;49.134;9.212;2023-05-08T06:00:20;100436.44;;;15.53;100.00
49945;BME280;35838;49.134;9.212;2023-05-08T06:01:57;100435.50;;;15.57;100.00
49945;BME280;35838;49.134;9.212;2023-05-08T06:03:31;100438.06;;;15.60;100.00
49945;BME280;35838;49.134;9.212;2023-05-08T06:05:05;100432.00;;;15.60;100.00
49945;BME280;35838;49.134;9.212;2023-05-08T06:06:36;100431.91;;;15.64;100.00
49945;BME280;35838;49.134;9.212;2023-05-08T06:08:10;100433.69;;;15.61;100.00
49945;BME280;35838;49.134;9.212;2023-05-08T06:09:45;100441.53;;;15.62;100.00
49945;BME280;35838;49.134;9.212;2023-05-08T06:11:20;100433.63;;;15.65;100.00
49945;BME280;35838;49.134;9.212;2023-05-08T06:12:55;100439.81;;;15.61;100.00
49945;BME280;35838;49.134;9.212;2023-05-08T06:14:29;100440.59;;;15.66;100.00
49945;BME280;35838;49.134;9.212;2023-05-08T06:16:02;100441.53;;;15.62;100.00
49945;BME280;35838;49.134;9.212;2023-05-08T06:17:40;100441.53;;;15.62;100.00
49945;BME280;35838;49.134;9.212;2023-05-08T06:19:13;100448.44;;;15.66;100.00
49945;BME280;35838;49.134;9.212;2023-05-08T06:20:47;100446.66;;;15.69;100.00
49945;BME280;35838;49.134;9.212;2023-05-08T06:22:21;100447.50;;;15.69;100.00
49945;BME280;35838;49.134;9.212;2023-05-08T06:23:55;100448.34;;;15.73;100.00
49945;BME280;35838;49.134;9.212;2023-05-08T06:25:29;100442.16;;;15.77;100.00
49945;BME280;35838;49.134;9.212;2023-05-08T06:27:03;100449.16;;;15.75;100.00
49945;BME280;35838;49.134;9.212;2023-05-08T06:28:36;100444.81;;;15.74;100.00
49945;BME280;35838;49.134;9.212;2023-05-08T06:30:11;100447.34;;;15.78;100.00
49945;BME280;35838;49.134;9.212;2023-05-08T06:31:44;100441.22;;;15.81;100.00
49945;BME280;35838;49.134;9.212;2023-05-08T06:33:21;100442.97;;;15.82;100.00
49945;BME280;35838;49.134;9.212;2023-05-08T06:34:55;100450.81;;;15.80;100.00
49945;BME280;35838;49.134;9.212;2023-05-08T06:36:29;100449.94;;;15.81;100.00
49945;BME280;35838;49.134;9.212;2023-05-08T06:38:02;100449.97;;;15.80;100.00
49945;BME280;35838;49.134;9.212;2023-05-08T06:39:36;100443.81;;;15.82;100.00
49945;BME280;35838;49.134;9.212;2023-05-08T06:41:10;100442.91;;;15.87;100.00
49945;BME280;35838;49.134;9.212;2023-05-08T06:42:43;100441.16;;;15.87;100.00
49945;BME280;35838;49.134;9.212;2023-05-08T06:44:17;100445.53;;;15.85;100.00
49945;BME280;35838;49.134;9.212;2023-05-08T06:45:51;100439.41;;;15.86;100.00
49945;BME280;35838;49.134;9.212;2023-05-08T06:47:25;100444.78;;;15.77;100.00
49945;BME280;35838;49.134;9.212;2023-05-08T06:49:01;100441.22;;;15.81;100.00
49945;BME280;35838;49.134;9.212;2023-05-08T06:50:36;100442.97;;;15.80;100.00
49945;BME280;35838;49.134;9.212;2023-05-08T06:52:10;100435.22;;;15.74;100.00
49945;BME280;35838;49.134;9.212;2023-05-08T06:53:43;100432.59;;;15.76;100.00
49945;BME280;35838;49.134;9.212;2023-05-08T06:55:17;100435.13;;;15.80;100.00
49945;BME280;35838;49.134;9.212;2023-05-08T06:56:51;100426.38;;;15.85;100.00
49945;BME280;35838;49.134;9.212;2023-05-08T06:58:25;100437.72;;;15.82;100.00
49945;BME280;35838;49.134;9.212;2023-05-08T07:00:01;100438.63;;;15.81;100.00
49945;BME280;35838;49.134;9.212;2023-05-08T07:01:34;100435.19;;;15.77;100.00
49945;BME280;35838;49.134;9.212;2023-05-08T07:03:08;100436.03;;;15.78;100.00
49945;BME280;35838;49.134;9.212;2023-05-08T07:04:45;100432.53;;;15.79;100.00
49945;BME280;35838;49.134;9.212;2023-05-08T07:06:18;100437.78;;;15.79;100.00
49945;BME280;35838;49.134;9.212;2023-05-08T07:07:52;100435.13;;;15.82;100.00
49945;BME280;35838;49.134;9.212;2023-05-08T07:09:26;100437.69;;;15.85;100.00
49945;BME280;35838;49.134;9.212;2023-05-08T07:10:59;100440.34;;;15.84;100.00
49945;BME280;35838;49.134;9.212;2023-05-08T07:12:33;100436.81;;;15.86;100.00
49945;BME280;35838;49.134;9.212;2023-05-08T07:14:07;100434.16;;;15.88;100.00
49945;BME280;35838;49.134;9.212;2023-05-08T07:15:41;100426.41;;;15.80;100.00
49945;BME280;35838;49.134;9.212;2023-05-08T07:17:14;100426.50;;;15.75;100.00
49945;BME280;35838;49.134;9.212;2023-05-08T07:18:48;100427.25;;;15.82;100.00
49945;BME280;35838;49.134;9.212;2023-05-08T07:20:24;100425.44;;;15.87;100.00
49945;BME280;35838;49.134;9.212;2023-05-08T07:21:58;100425.44;;;15.87;100.00
49945;BME280;35838;49.134;9.212;2023-05-08T07:23:32;100425.44;;;15.87;100.00
49945;BME280;35838;49.134;9.212;2023-05-08T07:25:06;100424.59;;;15.87;100.00
49945;BME280;35838;49.134;9.212;2023-05-08T07:26:40;100432.41;;;15.88;100.00
49945;BME280;35838;49.134;9.212;2023-05-08T07:28:13;100432.34;;;15.91;100.00
49945;BME280;35838;49.134;9.212;2023-05-08T07:29:47;100437.59;;;15.90;100.00
49945;BME280;35838;49.134;9.212;2023-05-08T07:31:21;100443.66;;;15.95;100.00
49945;BME280;35838;49.134;9.212;2023-05-08T07:32:54;100441.88;;;15.95;100.00
49945;BME280;35838;49.134;9.212;2023-05-08T07:34:28;100439.13;;;16.02;100.00
49945;BME280;35838;49.134;9.212;2023-05-08T07:36:04;100427.91;;;15.96;100.00
49945;BME280;35838;49.134;9.212;2023-05-08T07:37:38;100430.34;;;16.06;100.00
49945;BME280;35838;49.134;9.212;2023-05-08T07:39:12;100435.50;;;16.10;100.00
49945;BME280;35838;49.134;9.212;2023-05-08T07:40:45;100438.16;;;16.07;100.00
49945;BME280;35838;49.134;9.212;2023-05-08T07:42:21;100440.94;;;15.98;100.00
49945;BME280;35838;49.134;9.212;2023-05-08T07:43:54;100440.03;;;16.02;100.00
49945;BME280;35838;49.134;9.212;2023-05-08T07:45:28;100435.72;;;16.00;100.00
49945;BME280;35838;49.134;9.212;2023-05-08T07:47:01;100435.59;;;16.06;100.00
49945;BME280;35838;49.134;9.212;2023-05-08T07:48:35;100447.00;;;16.02;100.00
49945;BME280;35838;49.134;9.212;2023-05-08T07:50:09;100443.56;;;16.00;100.00
49945;BME280;35838;49.134;9.212;2023-05-08T07:51:45;100444.63;;;15.89;100.00
49945;BME280;35838;49.134;9.212;2023-05-08T07:53:19;100436.69;;;15.92;100.00
49945;BME280;35838;49.134;9.212;2023-05-08T07:54:53;100443.78;;;15.87;100.00
49945;BME280;35838;49.134;9.212;2023-05-08T07:56:27;100443.59;;;15.96;100.00
49945;BME280;35838;49.134;9.212;2023-05-08T07:58:01;100443.56;;;15.98;100.00
49945;BME280;35838;49.134;9.212;2023-05-08T07:59:35;100441.00;;;15.96;100.00
49945;BME280;35838;49.134;9.212;2023-05-08T08:01:08;100447.06;;;15.98;100.00
49945;BME280;35838;49.134;9.212;2023-05-08T08:02:42;100440.78;;;16.07;100.00
49945;BME280;35838;49.134;9.212;2023-05-08T08:04:16;100447.72;;;16.10;100.00
49945;BME280;35838;49.134;9.212;2023-05-08T08:05:50;100449.41;;;16.14;100.00
49945;BME280;35838;49.134;9.212;2023-05-08T08:07:27;100448.63;;;16.07;100.00
